Time;durP1;ratioP1;P1;durP2;ratioP2;P2;SDS_P1;SDS_P2;PMS_P1;PMS_P2;Temp;Humidity;BMP_temperature;BMP_pressure;BME280_temperature;BME280_humidity;BME280_pressure;Samples;Min_cycle;Max_cycle;Signal;HPM_P1;HPM_P2
2021/06/30 00:02:09;;;;;;;30.48;19.35;;;15.80;99.90;;;;;;5006750;28;20050;-43
2021/06/30 00:04:38;;;;;;;31.08;19.85;;;15.80;99.90;;;;;;4988626;28;20072;-41
2021/06/30 00:07:06;;;;;;;28.20;20.38;;;15.70;99.90;;;;;;4978999;28;20375;-42
2021/06/30 00:09:36;;;;;;;30.20;20.40;;;15.70;99.90;;;;;;4988553;28;20066;-43
2021/06/30 00:12:03;;;;;;;31.85;20.52;;;15.70;99.90;;;;;;4989060;28;20054;-42
2021/06/30 00:14:33;;;;;;;30.17;21.75;;;15.70;99.90;;;;;;5003077;28;20045;-42
2021/06/30 00:17:04;;;;;;;37.65;24.17;;;15.70;99.90;;;;;;5007164;28;20057;-42
2021/06/30 00:19:33;;;;;;;36.40;22.50;;;15.70;99.90;;;;;;4992133;28;20048;-42
2021/06/30 00:22:03;;;;;;;;;;;15.70;99.90;;;;;;4989685;28;20385;-42
2021/06/30 00:24:32;;;;;;;33.70;22.08;;;15.70;99.90;;;;;;4997538;28;20694;-43
2021/06/30 00:27:03;;;;;;;36.50;22.42;;;15.60;99.90;;;;;;5007410;28;20041;-43
2021/06/30 00:29:33;;;;;;;33.17;23.17;;;15.70;99.90;;;;;;5006214;28;20485;-43
2021/06/30 00:31:59;;;;;;;32.05;22.30;;;15.70;99.90;;;;;;5007346;28;20192;-42
2021/06/30 00:34:25;;;;;;;36.50;21.70;;;15.70;99.90;;;;;;5006422;28;20137;-42
2021/06/30 00:36:52;;;;;;;34.17;22.45;;;15.60;99.90;;;;;;5007849;28;20042;-43
2021/06/30 00:39:23;;;;;;;39.28;22.00;;;15.60;99.90;;;;;;5007303;28;20547;-43
2021/06/30 00:41:54;;;;;;;36.15;20.90;;;15.60;99.90;;;;;;5003276;28;20049;-43
2021/06/30 00:44:26;;;;;;;32.00;20.87;;;15.60;99.90;;;;;;5005670;28;20366;-43
2021/06/30 00:46:55;;;;;;;44.55;23.15;;;15.60;99.90;;;;;;4990343;28;20451;-44
2021/06/30 00:49:24;;;;;;;36.58;22.95;;;15.60;99.90;;;;;;4988255;28;20054;-43
2021/06/30 00:51:57;;;;;;;34.60;19.85;;;15.60;99.90;;;;;;4987982;28;20099;-43
2021/06/30 00:54:26;;;;;;;31.52;20.52;;;15.60;99.90;;;;;;4986764;28;20051;-44
2021/06/30 00:56:55;;;;;;;33.20;20.65;;;15.60;99.90;;;;;;4995111;28;20050;-44
2021/06/30 00:59:21;;;;;;;28.35;19.33;;;15.60;99.90;;;;;;4992317;28;20088;-43
2021/06/30 01:01:48;;;;;;;31.00;18.02;;;15.60;99.90;;;;;;5003953;28;20045;-44
2021/06/30 01:04:18;;;;;;;29.75;18.42;;;15.60;99.90;;;;;;5008035;28;20474;-46
2021/06/30 01:06:45;;;;;;;30.13;20.00;;;15.60;99.90;;;;;;5007870;28;20045;-44
2021/06/30 01:09:13;;;;;;;32.47;20.15;;;15.70;99.90;;;;;;5008228;28;20042;-43
2021/06/30 01:11:48;;;;;;;32.83;19.00;;;15.60;99.90;;;;;;4999436;28;20050;-43
2021/06/30 01:14:30;;;;;;;34.95;20.67;;;15.60;99.90;;;;;;4987474;28;20062;-45
2021/06/30 01:16:57;;;;;;;27.73;17.33;;;15.60;99.90;;;;;;5005578;28;20046;-45
2021/06/30 01:19:27;;;;;;;27.42;18.35;;;15.60;99.90;;;;;;5007178;28;20045;-44
2021/06/30 01:21:55;;;;;;;26.38;17.73;;;15.60;99.90;;;;;;4996800;28;20058;-44
2021/06/30 01:24:27;;;;;;;24.20;16.25;;;15.60;99.90;;;;;;5004519;28;20137;-43
2021/06/30 01:26:55;;;;;;;22.65;16.05;;;15.60;99.90;;;;;;5006363;28;20065;-44
2021/06/30 01:29:22;;;;;;;24.40;16.13;;;15.60;99.90;;;;;;5006057;28;20049;-44
2021/06/30 01:31:51;;;;;;;25.85;16.77;;;15.60;99.90;;;;;;5003268;28;20042;-44
2021/06/30 01:34:18;;;;;;;26.77;17.67;;;15.60;99.90;;;;;;4997323;28;20053;-45
2021/06/30 01:36:53;;;;;;;26.92;17.33;;;15.60;99.90;;;;;;5006099;28;20058;-43
2021/06/30 01:39:25;;;;;;;22.55;16.65;;;15.60;99.90;;;;;;5006652;28;20486;-45
2021/06/30 01:41:53;;;;;;;24.27;15.85;;;15.60;99.90;;;;;;5006037;28;20049;-44
2021/06/30 01:44:22;;;;;;;22.95;18.17;;;15.60;99.90;;;;;;4991954;28;20041;-43
2021/06/30 01:46:54;;;;;;;29.10;17.95;;;15.60;99.90;;;;;;5004987;28;20053;-45
2021/06/30 01:49:22;;;;;;;25.80;16.52;;;15.60;99.90;;;;;;4988301;28;20100;-44
2021/06/30 01:51:51;;;;;;;30.05;18.10;;;15.50;99.90;;;;;;4985840;28;20054;-44
2021/06/30 01:54:20;;;;;;;23.45;17.25;;;15.60;99.90;;;;;;4997208;28;20058;-42
2021/06/30 01:56:50;;;;;;;34.35;19.20;;;15.60;99.90;;;;;;5006343;28;20053;-43
2021/06/30 01:59:21;;;;;;;29.75;19.52;;;15.50;99.90;;;;;;5005464;28;20050;-43
2021/06/30 02:01:50;;;;;;;29.75;20.10;;;15.50;99.90;;;;;;5004177;28;20049;-44
2021/06/30 02:04:19;;;;;;;36.75;20.92;;;15.50;99.90;;;;;;5005369;28;20119;-43
2021/06/30 02:06:48;;;;;;;39.17;20.52;;;15.50;99.90;;;;;;5005715;28;20050;-45
2021/06/30 02:09:15;;;;;;;33.92;20.25;;;15.40;99.90;;;;;;5005698;28;20050;-46
2021/06/30 02:11:44;;;;;;;31.75;20.77;;;15.40;99.90;;;;;;5005815;28;20046;-43
2021/06/30 02:14:18;;;;;;;31.65;19.13;;;15.40;99.90;;;;;;5006602;28;20049;-43
2021/06/30 02:16:51;;;;;;;34.95;21.17;;;15.40;99.90;;;;;;4998033;28;20049;-44
2021/06/30 02:19:20;;;;;;;36.00;22.05;;;15.40;99.90;;;;;;5005377;28;20053;-43
2021/06/30 02:21:47;;;;;;;38.95;22.42;;;15.40;99.90;;;;;;5004871;28;20049;-45
2021/06/30 02:24:16;;;;;;;37.45;21.42;;;15.40;99.90;;;;;;5005795;28;20097;-44
2021/06/30 02:26:44;;;;;;;33.27;22.60;;;15.50;99.90;;;;;;5009097;28;20041;-46
2021/06/30 02:29:16;;;;;;;38.97;23.38;;;15.40;99.90;;;;;;5005355;28;20553;-43
2021/06/30 02:31:44;;;;;;;39.00;24.95;;;15.40;99.90;;;;;;5003410;28;20042;-44
2021/06/30 02:34:11;;;;;;;37.30;25.42;;;15.40;99.90;;;;;;5004689;28;20465;-43
2021/06/30 02:36:39;;;;;;;35.33;24.88;;;15.40;99.90;;;;;;5002758;28;20813;-44
2021/06/30 02:39:06;;;;;;;34.25;22.63;;;15.40;99.90;;;;;;5005889;28;20079;-43
2021/06/30 02:41:37;;;;;;;35.75;23.25;;;15.30;99.90;;;;;;5004263;28;20050;-44
2021/06/30 02:44:04;;;;;;;33.20;23.60;;;15.30;99.90;;;;;;5003895;28;20765;-43
2021/06/30 02:46:30;;;;;;;33.83;23.25;;;15.30;99.90;;;;;;5004117;28;20046;-43
2021/06/30 02:48:57;;;;;;;30.50;20.92;;;15.30;99.90;;;;;;5013779;28;20373;-45
2021/06/30 02:51:30;;;;;;;31.77;21.73;;;15.30;99.90;;;;;;5023996;28;20046;-43
2021/06/30 02:53:58;;;;;;;35.50;21.60;;;15.30;99.90;;;;;;5009469;28;20711;-43
2021/06/30 02:56:27;;;;;;;26.60;20.73;;;15.30;99.90;;;;;;5005399;28;20100;-43
2021/06/30 02:58:56;;;;;;;27.00;19.60;;;15.20;99.90;;;;;;5007990;28;20149;-42
2021/06/30 03:01:24;;;;;;;25.67;19.30;;;15.20;99.90;;;;;;5008073;28;20042;-43
2021/06/30 03:03:51;;;;;;;27.85;21.10;;;15.20;99.90;;;;;;5003648;28;20042;-44
2021/06/30 03:06:17;;;;;;;31.73;20.50;;;15.30;99.90;;;;;;5005575;28;20046;-43
2021/06/30 03:08:49;;;;;;;27.30;17.85;;;15.20;99.90;;;;;;5003442;28;20050;-45
2021/06/30 03:11:18;;;;;;;26.63;19.95;;;15.20;99.90;;;;;;5004403;28;20161;-43
2021/06/30 03:13:46;;;;;;;23.88;18.23;;;15.20;99.90;;;;;;5003254;28;20052;-45
2021/06/30 03:16:16;;;;;;;26.92;19.55;;;15.20;99.90;;;;;;5003268;28;20057;-46
2021/06/30 03:18:45;;;;;;;25.58;18.77;;;15.20;99.90;;;;;;5003054;28;20049;-45
2021/06/30 03:21:14;;;;;;;27.20;17.90;;;15.20;99.90;;;;;;4996800;28;20046;-44
2021/06/30 03:23:43;;;;;;;24.42;17.95;;;15.20;99.90;;;;;;5005451;28;20046;-43
2021/06/30 03:26:14;;;;;;;25.65;17.75;;;15.20;99.90;;;;;;5024714;28;20053;-43
2021/06/30 03:28:43;;;;;;;26.98;18.27;;;15.20;99.90;;;;;;5026969;28;20136;-46
2021/06/30 03:31:14;;;;;;;23.10;17.27;;;15.30;99.90;;;;;;5012975;28;20474;-43
2021/06/30 03:33:43;;;;;;;21.15;17.45;;;15.30;99.90;;;;;;5004873;28;20042;-44
2021/06/30 03:36:10;;;;;;;19.77;15.82;;;15.20;99.90;;;;;;4984819;28;20046;-44
2021/06/30 03:38:39;;;;;;;20.60;16.73;;;15.30;99.90;;;;;;4991653;28;20049;-43
2021/06/30 03:41:08;;;;;;;23.70;17.00;;;15.20;99.90;;;;;;5001466;28;20045;-46
2021/06/30 03:43:37;;;;;;;22.08;15.93;;;15.30;99.90;;;;;;5003906;28;20060;-44
2021/06/30 03:46:07;;;;;;;19.60;16.35;;;15.20;99.90;;;;;;5007846;28;20129;-44
2021/06/30 03:48:37;;;;;;;20.17;16.67;;;15.30;99.90;;;;;;5022661;28;20045;-43
2021/06/30 03:51:04;;;;;;;20.60;15.75;;;15.20;99.90;;;;;;5007794;28;20487;-45
2021/06/30 03:53:33;;;;;;;21.88;16.13;;;15.20;99.90;;;;;;5001624;28;20127;-45
2021/06/30 03:55:59;;;;;;;21.00;16.90;;;15.20;99.90;;;;;;5008758;28;20050;-44
2021/06/30 03:58:30;;;;;;;17.50;15.65;;;15.20;99.90;;;;;;5009025;28;20117;-44
2021/06/30 04:01:05;;;;;;;25.58;16.83;;;15.20;99.90;;;;;;5007483;28;20080;-43
2021/06/30 04:03:33;;;;;;;25.13;16.63;;;15.20;99.90;;;;;;5007417;28;20052;-43
2021/06/30 04:06:02;;;;;;;24.08;18.10;;;15.20;99.90;;;;;;5008537;28;20046;-45
2021/06/30 04:08:34;;;;;;;26.30;17.42;;;15.20;99.90;;;;;;5008130;28;20046;-43
2021/06/30 04:11:03;;;;;;;;;;;15.20;99.90;;;;;;5008847;28;20896;-43
2021/06/30 04:13:33;;;;;;;25.92;17.35;;;15.10;99.90;;;;;;5006279;28;20324;-44
2021/06/30 04:15:59;;;;;;;25.08;17.60;;;15.10;99.90;;;;;;5008120;28;20061;-44
2021/06/30 04:18:28;;;;;;;22.20;17.05;;;15.10;99.90;;;;;;5007114;28;20042;-44
2021/06/30 04:20:58;;;;;;;20.13;16.65;;;15.10;99.90;;;;;;5006561;28;20077;-43
2021/06/30 04:23:26;;;;;;;24.40;17.23;;;15.10;99.90;;;;;;5005137;28;20478;-45
2021/06/30 04:25:56;;;;;;;22.77;16.92;;;15.10;99.90;;;;;;5007529;28;20050;-45
2021/06/30 04:28:22;;;;;;;21.65;17.13;;;15.10;99.90;;;;;;5007328;28;20050;-44
2021/06/30 04:30:49;;;;;;;21.17;17.30;;;15.10;99.90;;;;;;5008117;28;20073;-43
2021/06/30 04:33:21;;;;;;;26.95;18.55;;;15.10;99.90;;;;;;5010915;28;20498;-45
2021/06/30 04:35:50;;;;;;;24.70;18.58;;;15.10;99.90;;;;;;4993473;28;20054;-44
2021/06/30 04:38:19;;;;;;;24.45;17.70;;;15.10;99.90;;;;;;4988533;28;20057;-44
2021/06/30 04:40:48;;;;;;;22.80;18.75;;;15.00;99.90;;;;;;4993908;28;20499;-43
2021/06/30 04:43:19;;;;;;;27.00;19.92;;;15.10;99.90;;;;;;4986871;28;20161;-46
2021/06/30 04:45:49;;;;;;;26.50;18.40;;;15.00;99.90;;;;;;5000521;28;20049;-47
2021/06/30 04:48:18;;;;;;;27.95;18.75;;;15.00;99.90;;;;;;5014564;28;20034;-44
2021/06/30 04:50:46;;;;;;;25.38;20.33;;;15.00;99.90;;;;;;5007609;28;20137;-42
2021/06/30 04:53:18;;;;;;;23.17;18.33;;;15.20;99.90;;;;;;5007099;28;20587;-45
2021/06/30 04:55:49;;;;;;;25.65;19.15;;;15.20;99.90;;;;;;5005806;28;20073;-44
2021/06/30 04:58:20;;;;;;;31.20;18.55;;;15.30;99.90;;;;;;4987776;28;20053;-44
2021/06/30 05:00:54;;;;;;;27.52;19.27;;;15.30;99.90;;;;;;4994140;28;20046;-45
2021/06/30 05:03:28;;;;;;;25.75;18.63;;;15.30;99.90;;;;;;5016625;28;20584;-44
2021/06/30 05:05:55;;;;;;;32.83;19.45;;;15.30;99.90;;;;;;4999026;28;20043;-44
2021/06/30 05:08:23;;;;;;;25.48;17.98;;;15.30;99.90;;;;;;5007601;28;20057;-46
2021/06/30 05:10:54;;;;;;;33.25;20.38;;;15.30;99.90;;;;;;5002608;28;20047;-44
2021/06/30 05:13:30;;;;;;;26.52;17.98;;;15.30;99.90;;;;;;4988141;28;20061;-44
2021/06/30 05:15:58;;;;;;;31.50;19.35;;;15.30;99.90;;;;;;4992799;28;20125;-47
2021/06/30 05:18:25;;;;;;;26.75;18.02;;;15.30;99.90;;;;;;5010282;28;20042;-46
2021/06/30 05:20:56;;;;;;;29.42;17.48;;;15.30;99.90;;;;;;4992325;28;20042;-45
2021/06/30 05:23:25;;;;;;;24.98;17.60;;;15.30;99.90;;;;;;4994481;28;20058;-46
2021/06/30 05:26:02;;;;;;;33.45;20.27;;;15.30;99.90;;;;;;4997635;28;20125;-45
2021/06/30 05:28:46;;;;;;;65.03;54.80;;;15.30;99.90;;;;;;5000757;28;20168;-45
2021/06/30 05:31:49;;;;;;;55.45;43.10;;;15.30;99.90;;;;;;4952473;28;20066;-45
2021/06/30 05:34:43;;;;;;;42.45;29.95;;;15.30;99.90;;;;;;4936010;28;20047;-47
2021/06/30 05:37:15;;;;;;;35.17;26.58;;;15.30;99.90;;;;;;4958602;28;20058;-44
2021/06/30 05:39:49;;;;;;;31.27;21.13;;;15.30;99.90;;;;;;4949447;28;20134;-45
2021/06/30 05:42:16;;;;;;;40.92;27.70;;;15.30;99.90;;;;;;4965461;28;20055;-46
2021/06/30 05:44:45;;;;;;;40.40;26.58;;;15.30;99.90;;;;;;4969272;28;20218;-45
2021/06/30 05:47:11;;;;;;;42.88;33.50;;;15.40;99.90;;;;;;4969711;28;20582;-44
2021/06/30 05:49:40;;;;;;;36.63;26.27;;;15.40;99.90;;;;;;4989336;28;20045;-45
2021/06/30 05:52:09;;;;;;;34.33;20.52;;;15.50;99.90;;;;;;5006039;28;20041;-46
2021/06/30 05:54:36;;;;;;;39.85;25.55;;;15.60;99.90;;;;;;5005787;28;20037;-44
2021/06/30 05:57:05;;;;;;;34.97;24.70;;;15.60;99.90;;;;;;4999113;28;20050;-44
2021/06/30 05:59:35;;;;;;;36.72;26.05;;;15.60;99.90;;;;;;5017964;28;20106;-47
2021/06/30 06:02:05;;;;;;;33.15;22.20;;;15.50;99.90;;;;;;5003847;28;20038;-47
2021/06/30 06:04:34;;;;;;;25.80;19.50;;;15.60;99.90;;;;;;5004482;28;20502;-46
2021/06/30 06:07:01;;;;;;;31.52;18.67;;;15.60;99.90;;;;;;5002546;28;20517;-45
2021/06/30 06:09:28;;;;;;;37.85;19.17;;;15.50;99.90;;;;;;5011065;28;20092;-45
2021/06/30 06:11:55;;;;;;;31.33;19.42;;;15.50;99.90;;;;;;5009112;28;20038;-44
2021/06/30 06:14:23;;;;;;;31.17;17.52;;;15.50;99.90;;;;;;5006356;28;20506;-46
2021/06/30 06:16:52;;;;;;;41.38;32.90;;;15.50;99.90;;;;;;5019490;28;20048;-45
2021/06/30 06:19:21;;;;;;;29.15;19.75;;;15.50;99.90;;;;;;5004994;28;20065;-47
2021/06/30 06:21:48;;;;;;;61.20;42.22;;;15.50;99.90;;;;;;5000602;28;20081;-46
2021/06/30 06:24:17;;;;;;;28.92;18.52;;;15.50;99.90;;;;;;5006197;28;20046;-47
2021/06/30 06:26:52;;;;;;;31.85;22.90;;;15.50;99.90;;;;;;5014091;28;20053;-47
2021/06/30 06:29:20;;;;;;;33.13;21.05;;;15.50;99.90;;;;;;4996275;28;20095;-47
2021/06/30 06:31:49;;;;;;;27.58;18.42;;;15.50;99.90;;;;;;4994119;28;20486;-46
2021/06/30 06:34:22;;;;;;;34.75;23.17;;;15.50;99.90;;;;;;4990540;28;20089;-49
2021/06/30 06:36:49;;;;;;;23.20;16.40;;;15.50;99.90;;;;;;4986354;28;20053;-43
2021/06/30 06:39:20;;;;;;;27.02;16.90;;;15.50;99.90;;;;;;4992537;28;20053;-48
2021/06/30 06:41:47;;;;;;;32.35;19.92;;;15.50;99.90;;;;;;4997876;28;20137;-44
2021/06/30 06:44:14;;;;;;;32.60;18.45;;;15.60;99.90;;;;;;4999916;28;20073;-46
2021/06/30 06:46:40;;;;;;;28.88;16.67;;;15.60;99.90;;;;;;4995099;28;20042;-44
2021/06/30 06:49:08;;;;;;;29.23;15.90;;;15.60;99.90;;;;;;4995575;28;20049;-43
2021/06/30 06:51:38;;;;;;;29.05;16.77;;;15.60;99.90;;;;;;4991238;28;20100;-45
2021/06/30 06:54:07;;;;;;;35.95;22.85;;;15.60;99.90;;;;;;5002210;28;20050;-43
2021/06/30 06:56:36;;;;;;;34.90;27.23;;;15.70;99.90;;;;;;5003922;28;20077;-45
2021/06/30 06:59:03;;;;;;;25.88;16.38;;;15.70;99.90;;;;;;5022049;28;20045;-47
2021/06/30 07:01:29;;;;;;;25.42;17.20;;;15.70;99.90;;;;;;5004290;28;20042;-46
2021/06/30 07:03:55;;;;;;;31.35;17.48;;;15.80;99.90;;;;;;5003544;28;20073;-45
2021/06/30 07:06:21;;;;;;;23.90;16.40;;;15.70;99.90;;;;;;4999419;28;20068;-46
2021/06/30 07:08:53;;;;;;;114.78;102.35;;;15.70;99.90;;;;;;5001594;28;20042;-46
2021/06/30 07:11:20;;;;;;;82.07;71.53;;;15.70;99.90;;;;;;5002484;28;20050;-45
2021/06/30 07:13:49;;;;;;;30.40;19.83;;;15.80;99.90;;;;;;4995274;28;20044;-44
2021/06/30 07:16:16;;;;;;;34.50;19.25;;;15.80;99.90;;;;;;5000373;28;20045;-47
2021/06/30 07:18:42;;;;;;;25.73;16.58;;;15.70;99.90;;;;;;4997181;28;20034;-44
2021/06/30 07:21:10;;;;;;;30.13;21.33;;;15.80;99.90;;;;;;5001385;28;20088;-45
2021/06/30 07:23:37;;;;;;;30.90;18.75;;;15.80;99.90;;;;;;5001743;28;20149;-46
2021/06/30 07:26:04;;;;;;;31.40;20.40;;;15.80;99.90;;;;;;5008352;28;20149;-44
2021/06/30 07:28:33;;;;;;;26.98;17.48;;;15.80;99.90;;;;;;5014809;28;20140;-46
2021/06/30 07:31:02;;;;;;;28.67;18.15;;;15.80;99.90;;;;;;5005142;28;20037;-45
2021/06/30 07:33:28;;;;;;;28.25;18.95;;;15.80;99.90;;;;;;5009676;28;20129;-45
2021/06/30 07:35:57;;;;;;;30.80;17.27;;;15.90;99.90;;;;;;5007734;28;20050;-45
2021/06/30 07:38:25;;;;;;;28.27;17.35;;;15.90;99.90;;;;;;5005989;28;20383;-47
2021/06/30 07:40:52;;;;;;;29.77;17.48;;;15.90;99.90;;;;;;5008302;28;20080;-44
2021/06/30 07:43:18;;;;;;;29.30;19.25;;;16.00;99.90;;;;;;5002205;28;20049;-45
2021/06/30 07:45:45;;;;;;;28.33;15.88;;;16.00;99.90;;;;;;5007496;28;20379;-47
2021/06/30 07:48:11;;;;;;;34.13;15.52;;;16.00;99.90;;;;;;5011191;28;20052;-46
2021/06/30 07:50:41;;;;;;;26.05;14.52;;;16.00;99.90;;;;;;5004277;28;20132;-47
2021/06/30 07:53:10;;;;;;;23.20;14.05;;;16.10;99.90;;;;;;4999200;28;20104;-47
2021/06/30 07:55:39;;;;;;;21.50;14.15;;;16.20;99.90;;;;;;5008388;28;20520;-49
2021/06/30 07:58:28;;;;;;;25.77;15.73;;;16.20;99.90;;;;;;5007567;28;20303;-47
2021/06/30 08:00:54;;;;;;;22.23;14.75;;;16.40;99.90;;;;;;5006787;28;20053;-47
2021/06/30 08:03:21;;;;;;;24.27;13.77;;;16.40;99.90;;;;;;5008071;28;20443;-44
2021/06/30 08:05:47;;;;;;;21.85;14.77;;;16.50;99.90;;;;;;5007438;28;20160;-43
2021/06/30 08:08:15;;;;;;;25.17;14.57;;;16.50;99.90;;;;;;5016327;28;20112;-45
2021/06/30 08:10:44;;;;;;;22.52;13.48;;;16.50;99.90;;;;;;5008763;28;20046;-44
2021/06/30 08:13:10;;;;;;;25.38;13.93;;;16.50;99.90;;;;;;5005839;28;20046;-44
2021/06/30 08:15:36;;;;;;;24.35;14.80;;;16.60;99.90;;;;;;5007183;28;20089;-47
2021/06/30 08:18:03;;;;;;;22.98;13.75;;;16.60;99.90;;;;;;5000971;28;20136;-48
2021/06/30 08:20:30;;;;;;;24.92;13.30;;;16.60;99.90;;;;;;5014193;28;20088;-47
2021/06/30 08:22:57;;;;;;;23.55;13.45;;;16.70;99.90;;;;;;5006183;28;20127;-45
2021/06/30 08:25:24;;;;;;;22.23;14.18;;;16.70;99.90;;;;;;5004220;28;20046;-46
2021/06/30 08:27:54;;;;;;;25.38;12.73;;;16.70;99.90;;;;;;5006255;28;20482;-45
2021/06/30 08:30:23;;;;;;;22.42;12.57;;;16.70;99.90;;;;;;5007288;28;20038;-45
2021/06/30 08:32:49;;;;;;;27.42;12.00;;;16.80;99.90;;;;;;5010349;28;20069;-47
2021/06/30 08:35:16;;;;;;;24.27;12.45;;;16.80;99.90;;;;;;5012596;28;20497;-44
2021/06/30 08:37:44;;;;;;;25.40;12.63;;;16.80;99.90;;;;;;5019372;28;20176;-46
2021/06/30 08:40:15;;;;;;;21.92;11.38;;;17.00;99.90;;;;;;5005441;28;20129;-46
2021/06/30 08:42:43;;;;;;;16.77;11.52;;;17.00;99.90;;;;;;5006592;28;20050;-46
2021/06/30 08:45:10;;;;;;;16.92;12.30;;;17.00;99.90;;;;;;5006445;28;20046;-47
2021/06/30 08:47:38;;;;;;;18.20;10.73;;;17.00;99.90;;;;;;5004902;28;20123;-44
2021/06/30 08:50:08;;;;;;;20.90;10.80;;;17.10;99.90;;;;;;4995838;28;20073;-48
2021/06/30 08:52:39;;;;;;;21.95;11.95;;;16.90;99.90;;;;;;5009086;28;20545;-45
2021/06/30 08:55:08;;;;;;;20.53;11.97;;;16.90;99.90;;;;;;5005970;28;20046;-46
2021/06/30 08:57:36;;;;;;;19.08;11.95;;;16.90;99.90;;;;;;5006794;28;20046;-47
2021/06/30 09:00:04;;;;;;;18.75;10.68;;;16.90;99.90;;;;;;5006915;28;20104;-45
2021/06/30 09:02:31;;;;;;;17.58;11.23;;;16.80;99.90;;;;;;5007516;28;20457;-45
2021/06/30 09:05:11;;;;;;;18.38;11.10;;;16.90;99.90;;;;;;4997797;28;20053;-45
2021/06/30 09:07:40;;;;;;;16.00;10.95;;;16.80;99.90;;;;;;5008640;28;20061;-47
2021/06/30 09:10:07;;;;;;;18.05;11.77;;;16.80;99.90;;;;;;5007127;28;20041;-45
2021/06/30 09:12:38;;;;;;;14.95;11.50;;;16.80;99.90;;;;;;4996559;28;20491;-46
2021/06/30 09:15:26;;;;;;;31.83;12.57;;;16.90;99.90;;;;;;5005652;28;20469;-47
2021/06/30 09:17:54;;;;;;;17.98;12.70;;;16.80;99.90;;;;;;5001151;28;20042;-47
2021/06/30 09:20:21;;;;;;;17.67;11.38;;;16.80;99.90;;;;;;4995226;28;20065;-47
2021/06/30 09:22:51;;;;;;;18.35;12.48;;;16.60;99.90;;;;;;5003720;28;20084;-45
2021/06/30 09:25:32;;;;;;;16.70;12.13;;;16.60;99.90;;;;;;4988264;28;20066;-46
2021/06/30 09:28:10;;;;;;;15.27;10.82;;;16.50;99.90;;;;;;5003202;28;20406;-44
2021/06/30 09:30:57;;;;;;;17.75;11.90;;;16.60;99.90;;;;;;5006615;28;20053;-44
2021/06/30 09:33:24;;;;;;;18.02;11.88;;;16.60;99.90;;;;;;5003292;28;20181;-44
2021/06/30 09:36:14;;;;;;;16.30;11.82;;;16.60;99.90;;;;;;4987443;28;20050;-46
2021/06/30 09:38:44;;;;;;;15.85;10.35;;;16.70;99.90;;;;;;5008179;28;20133;-48
2021/06/30 09:41:41;;;;;;;13.50;10.20;;;16.70;99.90;;;;;;5001346;28;20081;-46
2021/06/30 09:44:13;;;;;;;15.35;10.07;;;16.70;99.90;;;;;;4995601;28;20486;-43
2021/06/30 09:46:41;;;;;;;;;;;16.70;99.90;;;;;;5006253;28;20061;-47
2021/06/30 09:49:09;;;;;;;15.35;9.90;;;16.70;99.90;;;;;;5000751;28;19995;-45
2021/06/30 09:51:36;;;;;;;13.20;8.65;;;16.70;99.90;;;;;;4994797;28;20042;-47
2021/06/30 09:54:05;;;;;;;9.73;7.28;;;16.70;99.90;;;;;;5006933;28;20058;-46
2021/06/30 09:56:38;;;;;;;10.77;7.90;;;16.80;99.90;;;;;;5006444;28;20163;-43
2021/06/30 09:59:16;;;;;;;10.65;7.78;;;16.70;99.90;;;;;;5006154;28;20075;-44
2021/06/30 10:01:46;;;;;;;13.25;8.32;;;16.70;99.90;;;;;;5005295;28;20046;-44
2021/06/30 10:04:36;;;;;;;11.30;7.93;;;16.80;99.90;;;;;;4998090;28;20038;-45
2021/06/30 10:07:07;;;;;;;9.88;7.38;;;16.80;99.90;;;;;;5000359;28;20042;-44
2021/06/30 10:09:34;;;;;;;10.93;7.80;;;16.90;99.90;;;;;;4997289;28;20148;-44
2021/06/30 10:12:11;;;;;;;10.98;7.43;;;17.00;99.90;;;;;;4997815;28;20042;-44
2021/06/30 10:14:43;;;;;;;19.02;8.20;;;17.10;99.90;;;;;;5019720;28;20134;-45
2021/06/30 10:17:13;;;;;;;10.25;6.95;;;17.00;99.90;;;;;;5000146;28;20049;-45
2021/06/30 10:19:41;;;;;;;11.05;7.50;;;17.10;99.90;;;;;;5004413;28;20050;-47
2021/06/30 10:22:15;;;;;;;10.60;7.63;;;17.20;99.90;;;;;;5006176;28;20439;-44
2021/06/30 10:24:46;;;;;;;11.63;7.47;;;17.20;99.90;;;;;;5008593;28;20054;-44
2021/06/30 10:27:15;;;;;;;8.80;7.20;;;17.20;99.90;;;;;;5003632;28;20479;-47
2021/06/30 10:29:45;;;;;;;11.23;7.32;;;17.40;99.90;;;;;;5004598;28;20053;-45
2021/06/30 10:32:15;;;;;;;8.88;6.63;;;17.40;99.90;;;;;;5004899;28;20042;-49
2021/06/30 10:34:47;;;;;;;7.93;6.95;;;17.40;99.90;;;;;;4999800;28;20104;-43
2021/06/30 10:37:17;;;;;;;8.13;6.97;;;17.30;99.90;;;;;;5007557;28;20470;-43
2021/06/30 10:39:47;;;;;;;9.35;6.90;;;17.30;99.90;;;;;;5006171;28;20053;-43
2021/06/30 10:42:35;;;;;;;9.45;6.65;;;17.40;99.90;;;;;;5006829;28;20132;-43
2021/06/30 10:45:17;;;;;;;9.13;7.22;;;17.40;99.90;;;;;;5000511;28;20039;-43
2021/06/30 10:48:02;;;;;;;8.25;6.75;;;17.60;99.90;;;;;;5003288;28;20045;-44
2021/06/30 10:50:37;;;;;;;8.77;6.20;;;17.80;99.90;;;;;;5013402;28;20042;-43
2021/06/30 10:53:04;;;;;;;7.22;6.03;;;17.80;99.90;;;;;;5000793;28;20053;-45
2021/06/30 10:55:36;;;;;;;12.77;7.55;;;17.90;99.90;;;;;;5009145;28;20049;-44
2021/06/30 10:58:26;;;;;;;9.15;6.60;;;18.10;99.90;;;;;;5010071;28;20072;-44
2021/06/30 11:00:58;;;;;;;8.00;6.40;;;18.20;99.90;;;;;;5016147;28;20075;-45
2021/06/30 11:03:45;;;;;;;7.57;6.18;;;18.20;99.90;;;;;;5017337;28;20065;-45
2021/06/30 11:06:15;;;;;;;9.55;5.93;;;18.30;99.90;;;;;;5014823;28;20034;-45
2021/06/30 11:08:50;;;;;;;8.40;5.80;;;18.30;99.90;;;;;;5010853;28;20042;-46
2021/06/30 11:11:26;;;;;;;7.38;5.65;;;18.30;99.90;;;;;;5010402;28;20130;-45
2021/06/30 11:14:19;;;;;;;8.57;6.32;;;18.30;99.90;;;;;;4998038;28;20054;-43
2021/06/30 11:16:53;;;;;;;7.68;6.00;;;18.20;99.90;;;;;;5003252;28;20048;-44
2021/06/30 11:19:25;;;;;;;12.07;9.48;;;18.10;99.90;;;;;;5011058;28;20478;-50
2021/06/30 11:21:57;;;;;;;6.65;5.20;;;18.10;99.90;;;;;;5010553;28;20061;-44
2021/06/30 11:24:36;;;;;;;18.00;15.68;;;18.00;99.90;;;;;;5008880;28;20074;-43
2021/06/30 11:27:25;;;;;;;12.95;10.73;;;17.90;99.90;;;;;;5007288;28;20045;-43
2021/06/30 11:30:03;;;;;;;7.70;6.32;;;17.90;99.90;;;;;;5007082;28;20038;-43
2021/06/30 11:32:35;;;;;;;17.48;14.88;;;17.70;99.90;;;;;;5002693;28;20056;-43
2021/06/30 11:35:07;;;;;;;9.32;7.25;;;17.50;99.90;;;;;;5005122;28;20569;-42
2021/06/30 11:37:33;;;;;;;8.93;5.80;;;17.50;99.90;;;;;;5010231;28;20038;-43
2021/06/30 11:40:08;;;;;;;19.75;16.38;;;17.20;99.90;;;;;;5007562;28;20490;-43
2021/06/30 11:42:37;;;;;;;6.07;4.80;;;17.20;99.90;;;;;;5002862;28;20072;-45
2021/06/30 11:45:26;;;;;;;18.48;16.52;;;17.10;99.90;;;;;;5010813;28;20041;-45
2021/06/30 11:47:58;;;;;;;10.35;7.43;;;17.00;99.90;;;;;;5009012;28;20398;-44
2021/06/30 11:50:29;;;;;;;11.77;9.27;;;17.20;99.90;;;;;;5010556;28;20052;-43
2021/06/30 11:52:58;;;;;;;7.23;5.30;;;17.20;99.90;;;;;;5007557;28;20065;-44
2021/06/30 11:55:36;;;;;;;9.07;6.78;;;17.20;99.90;;;;;;5005923;28;20097;-43
2021/06/30 11:58:03;;;;;;;11.20;6.75;;;17.10;99.90;;;;;;5008310;28;20087;-43
2021/06/30 12:00:31;;;;;;;14.80;11.35;;;17.30;99.90;;;;;;5004777;28;20389;-44
2021/06/30 12:03:03;;;;;;;10.23;6.90;;;17.30;99.90;;;;;;5001270;28;20049;-48
2021/06/30 12:05:31;;;;;;;10.80;8.52;;;17.40;99.90;;;;;;5007900;28;20129;-47
2021/06/30 12:08:03;;;;;;;12.80;8.00;;;17.40;99.90;;;;;;5010981;28;20125;-47
2021/06/30 12:10:30;;;;;;;;;;;17.40;99.90;;;;;;4994129;28;20046;-43
2021/06/30 12:13:00;;;;;;;11.68;7.22;;;17.30;99.90;;;;;;4990853;28;19928;-44
2021/06/30 12:15:27;;;;;;;10.13;6.22;;;17.30;99.90;;;;;;4989291;28;20546;-43
2021/06/30 12:17:56;;;;;;;13.23;7.60;;;17.10;99.90;;;;;;4991032;28;20050;-45
2021/06/30 12:20:31;;;;;;;10.68;7.20;;;17.10;99.90;;;;;;5002775;28;20417;-43
2021/06/30 12:23:00;;;;;;;11.25;7.20;;;17.10;99.90;;;;;;5007501;28;20045;-47
2021/06/30 12:25:30;;;;;;;13.75;7.25;;;17.00;99.90;;;;;;4991959;28;20057;-45
2021/06/30 12:28:05;;;;;;;14.10;7.38;;;17.00;99.90;;;;;;5009755;28;20053;-45
2021/06/30 12:30:42;;;;;;;12.38;6.93;;;16.70;99.90;;;;;;5011488;28;20061;-47
2021/06/30 12:33:12;;;;;;;13.52;7.70;;;16.70;99.90;;;;;;5004516;28;20046;-48
2021/06/30 12:35:41;;;;;;;15.25;8.75;;;16.80;99.90;;;;;;5003961;28;20111;-51
2021/06/30 12:38:14;;;;;;;14.95;9.23;;;16.80;99.90;;;;;;5008251;28;20050;-48
2021/06/30 12:40:43;;;;;;;10.65;7.85;;;16.70;99.90;;;;;;5008995;28;20053;-48
2021/06/30 12:43:17;;;;;;;13.02;9.23;;;16.70;99.90;;;;;;5009269;28;20136;-50
2021/06/30 12:45:54;;;;;;;11.93;8.05;;;16.70;99.90;;;;;;5019009;28;20137;-48
2021/06/30 12:48:25;;;;;;;9.75;8.48;;;16.60;99.90;;;;;;5000700;28;20080;-46